Архив погоды в Калининграде

Метеограмма Калининград
Вторник, 28 Марта
Время местн. Темп Ветер Видим Явления Облачность нижн/средн/верх Атм. давл. Влжн Точка росы ВНГО R Сост. почвы Tg s
Напр Скр Прв ур.ст ур.м изм
14:00 +10° З 2 6 10 км - незначительная облачность 763 765 +0.1 71% +4.9° 1.5 км - - - -
11:00 +8.4° Ю,Ю-З 2 4 10 км - переменная облачность 763 765 +0.9 78% +4.8° 1.5 км - - - -
08:00 +4.8° З 1 2 4 км дымка преимущественно облачно 762 764 +1.1 96% +4.2° 1 км 0 Влажная (без луж) - -
05:00 +5.3° З 1 6 4 км дымка преимущественно облачно 761 763 +0.5 93% +4.3° 1 км - - - -
02:00 +6° З 2 5 4 км дымка преимущественно облачно 761 763 -0.1 93% +5° 1 км - - - -
Понедельник, 27 Марта
Время местн. Темп Ветер Видим Явления Облачность нижн/средн/верх Атм. давл. Влжн Точка росы ВНГО R Сост. почвы Tg s
Напр Скр Прв ур.ст ур.м изм
23:00 +7.3° З 3 11 10 км - переменная облачность 761 763 -0.5 81% +4.3° 1 км - - - -
20:00 +6.6° З 2 5 10 км - переменная облачность 761 763 -1.4 84% +4.1° - 0 - - -
17:00 +12.7° З 2 6 10 км - переменная облачность 763 765 -1.7 62% +5.7° более 2.5 км - - - -
14:00 +13.2° З 3 7 10 км - облачно с прояснениями 764 766 -0.5 54% +4.1° более 2.5 км - - - -
11:00 +12.2° З 2 4 10 км - ясно 765 767 +0.4 50% +2° более 2.5 км - - - -
08:00 +6.1° З,С-З 1 4 10 км - ясно 764 766 +0.8 79% +2.7° более 2.5 км 0 Влажная (без луж) +1° -
05:00 +6.2° С-З 2 3 10 км - переменная облачность 764 766 +0.1 74% +1.9° 1 км - - - -
02:00 +5.7° З 2 5 10 км облака рассеиваются {ливневые осадки} ясно 764 766 -0.9 74% +1.4° более 2.5 км - - - -
Воскресенье, 26 Марта
Время местн. Темп Ветер Видим Явления Облачность нижн/средн/верх Атм. давл. Влжн Точка росы ВНГО R Сост. почвы Tg s
Напр Скр Прв ур.ст ур.м изм
23:00 +8.1° З 3 9 10 км ливневый дождь облачно с прояснениями 764 766 -1.2 52% -1.1° 1 км - - - -
20:00 +7.5° З 2 6 10 км - облачно 766 768 -1 51% -1.9° 1 км 0 - - -
17:00 +8.7° З 2 8 10 км - преимущественно облачно 767 769 -0.6 53% -0.4° 1 км - - - -
14:00 +10° З,С-З 2 6 10 км - переменная облачность 767 769 -0.8 33% -5.4° более 2.5 км - - - -
11:00 +6.9° С 3 5 10 км - облачно с прояснениями 768 770 +0.5 58% -0.8° 1 км - - - -
08:00 +3.6° штиль 0 0 10 км - переменная облачность 768 770 +1.2 80% +0.4° 1 км 0 Влажная (без луж) - -
05:00 +1.9° С 1 2 4 км дымка преимущественно облачно 766 769 +0.8 92% +0.7° 1 км - - - -
02:00 +1.7° С,С-З 1 7 4 км дымка ясно 766 768 +1.2 88% -0.1° более 2.5 км - - - -
Суббота, 25 Марта
Время местн. Темп Ветер Видим Явления Облачность нижн/средн/верх Атм. давл. Влжн Точка росы ВНГО R Сост. почвы Tg s
Напр Скр Прв ур.ст ур.м изм
23:00 +3° С 2 7 10 км - ясно 764 766 +0.8 81% более 2.5 км - - - -
20:00 +3.4° С,С-З 3 11 10 км - ясно 764 766 +0.7 77% -0.2° более 2.5 км 0 - - -
17:00 +4.9° С-З 3 8 10 км - преимущественно облачно 763 765 -0.6 77% +1.3° 1 км - - - -
14:00 +5.7° З,С-З 2 7 10 км - облачно 764 766 -1.3 78% +2.1° 1 км - - - -
11:00 +5.2° З,С-З 2 8 10 км - облачно 765 767 -0.7 77% +1.5° 1 км - - - -